sensor_id;sensor_type;location;lat;lon;timestamp;P1;durP1;ratioP1;P2;durP2;ratioP2
32082;SDS011;18597;48.328;7.932;2024-01-30T00:01:55;15.43;;;7.53;;
32082;SDS011;18597;48.328;7.932;2024-01-30T00:04:21;9.20;;;7.13;;
32082;SDS011;18597;48.328;7.932;2024-01-30T00:06:47;13.00;;;8.33;;
32082;SDS011;18597;48.328;7.932;2024-01-30T00:09:13;10.57;;;7.93;;
32082;SDS011;18597;48.328;7.932;2024-01-30T00:11:39;16.73;;;8.70;;
32082;SDS011;18597;48.328;7.932;2024-01-30T00:14:04;12.37;;;7.80;;
32082;SDS011;18597;48.328;7.932;2024-01-30T00:16:31;12.77;;;9.63;;
32082;SDS011;18597;48.328;7.932;2024-01-30T00:18:57;13.30;;;8.90;;
32082;SDS011;18597;48.328;7.932;2024-01-30T00:21:23;12.93;;;9.03;;
32082;SDS011;18597;48.328;7.932;2024-01-30T00:23:48;10.97;;;7.60;;
32082;SDS011;18597;48.328;7.932;2024-01-30T00:26:15;9.90;;;8.30;;
32082;SDS011;18597;48.328;7.932;2024-01-30T00:28:41;11.33;;;9.13;;
32082;SDS011;18597;48.328;7.932;2024-01-30T00:31:07;11.53;;;8.07;;
32082;SDS011;18597;48.328;7.932;2024-01-30T00:33:37;12.33;;;9.00;;
32082;SDS011;18597;48.328;7.932;2024-01-30T00:36:04;9.97;;;7.63;;
32082;SDS011;18597;48.328;7.932;2024-01-30T00:38:32;11.23;;;8.33;;
32082;SDS011;18597;48.328;7.932;2024-01-30T00:40:58;11.80;;;8.37;;
32082;SDS011;18597;48.328;7.932;2024-01-30T00:43:23;11.70;;;7.90;;
32082;SDS011;18597;48.328;7.932;2024-01-30T00:45:51;37.40;;;20.47;;
32082;SDS011;18597;48.328;7.932;2024-01-30T00:48:18;56.70;;;25.53;;
32082;SDS011;18597;48.328;7.932;2024-01-30T00:50:44;119.00;;;46.17;;
32082;SDS011;18597;48.328;7.932;2024-01-30T00:53:09;78.00;;;28.53;;
32082;SDS011;18597;48.328;7.932;2024-01-30T00:55:36;49.07;;;22.93;;
32082;SDS011;18597;48.328;7.932;2024-01-30T00:58:01;9.30;;;8.43;;
32082;SDS011;18597;48.328;7.932;2024-01-30T01:00:28;11.80;;;7.10;;
32082;SDS011;18597;48.328;7.932;2024-01-30T01:02:55;13.00;;;8.40;;
32082;SDS011;18597;48.328;7.932;2024-01-30T01:05:21;9.83;;;7.53;;
32082;SDS011;18597;48.328;7.932;2024-01-30T01:07:47;21.03;;;13.20;;
32082;SDS011;18597;48.328;7.932;2024-01-30T01:10:14;11.77;;;6.80;;
32082;SDS011;18597;48.328;7.932;2024-01-30T01:12:42;23.90;;;12.20;;
32082;SDS011;18597;48.328;7.932;2024-01-30T01:15:08;9.63;;;7.43;;
32082;SDS011;18597;48.328;7.932;2024-01-30T01:17:35;11.47;;;9.77;;
32082;SDS011;18597;48.328;7.932;2024-01-30T01:20:02;8.53;;;7.70;;
32082;SDS011;18597;48.328;7.932;2024-01-30T01:22:30;14.33;;;8.57;;
32082;SDS011;18597;48.328;7.932;2024-01-30T01:24:56;12.00;;;7.67;;
32082;SDS011;18597;48.328;7.932;2024-01-30T01:27:22;14.80;;;9.30;;
32082;SDS011;18597;48.328;7.932;2024-01-30T01:29:47;10.70;;;7.57;;
32082;SDS011;18597;48.328;7.932;2024-01-30T01:32:13;18.37;;;8.27;;
32082;SDS011;18597;48.328;7.932;2024-01-30T01:34:39;9.57;;;6.97;;
32082;SDS011;18597;48.328;7.932;2024-01-30T01:37:05;10.80;;;7.63;;
32082;SDS011;18597;48.328;7.932;2024-01-30T01:39:31;9.10;;;6.50;;
32082;SDS011;18597;48.328;7.932;2024-01-30T01:41:56;11.43;;;7.20;;
32082;SDS011;18597;48.328;7.932;2024-01-30T01:44:22;8.00;;;6.00;;
32082;SDS011;18597;48.328;7.932;2024-01-30T01:46:48;7.13;;;5.50;;
32082;SDS011;18597;48.328;7.932;2024-01-30T01:49:14;8.10;;;5.60;;
32082;SDS011;18597;48.328;7.932;2024-01-30T01:51:40;13.73;;;6.30;;
32082;SDS011;18597;48.328;7.932;2024-01-30T01:54:09;9.03;;;6.43;;
32082;SDS011;18597;48.328;7.932;2024-01-30T01:56:36;11.90;;;7.17;;
32082;SDS011;18597;48.328;7.932;2024-01-30T01:59:05;7.37;;;6.40;;
32082;SDS011;18597;48.328;7.932;2024-01-30T02:01:33;9.97;;;6.03;;
32082;SDS011;18597;48.328;7.932;2024-01-30T02:04:03;8.20;;;6.23;;
32082;SDS011;18597;48.328;7.932;2024-01-30T02:06:30;7.53;;;6.00;;
32082;SDS011;18597;48.328;7.932;2024-01-30T02:08:57;10.97;;;7.03;;
32082;SDS011;18597;48.328;7.932;2024-01-30T02:11:23;6.93;;;5.60;;
32082;SDS011;18597;48.328;7.932;2024-01-30T02:13:49;10.80;;;6.67;;
32082;SDS011;18597;48.328;7.932;2024-01-30T02:16:15;10.73;;;6.90;;
32082;SDS011;18597;48.328;7.932;2024-01-30T02:18:42;10.37;;;6.67;;
32082;SDS011;18597;48.328;7.932;2024-01-30T02:21:15;13.47;;;6.50;;
32082;SDS011;18597;48.328;7.932;2024-01-30T02:23:42;7.87;;;6.33;;
32082;SDS011;18597;48.328;7.932;2024-01-30T02:26:11;10.37;;;6.23;;
32082;SDS011;18597;48.328;7.932;2024-01-30T02:28:37;4.97;;;4.57;;
32082;SDS011;18597;48.328;7.932;2024-01-30T02:31:03;5.80;;;4.93;;
32082;SDS011;18597;48.328;7.932;2024-01-30T02:33:30;11.43;;;6.20;;
32082;SDS011;18597;48.328;7.932;2024-01-30T02:35:55;9.60;;;6.30;;
32082;SDS011;18597;48.328;7.932;2024-01-30T02:38:21;4.37;;;3.97;;
32082;SDS011;18597;48.328;7.932;2024-01-30T02:40:48;5.70;;;5.20;;
32082;SDS011;18597;48.328;7.932;2024-01-30T02:43:15;6.20;;;5.60;;
32082;SDS011;18597;48.328;7.932;2024-01-30T02:45:42;4.83;;;4.50;;
32082;SDS011;18597;48.328;7.932;2024-01-30T02:48:08;15.03;;;6.60;;
32082;SDS011;18597;48.328;7.932;2024-01-30T02:50:34;6.53;;;5.23;;
32082;SDS011;18597;48.328;7.932;2024-01-30T02:53:00;5.33;;;4.83;;
32082;SDS011;18597;48.328;7.932;2024-01-30T02:55:25;5.77;;;4.60;;
32082;SDS011;18597;48.328;7.932;2024-01-30T02:57:51;4.83;;;4.43;;
32082;SDS011;18597;48.328;7.932;2024-01-30T03:00:18;6.90;;;6.30;;
32082;SDS011;18597;48.328;7.932;2024-01-30T03:02:45;6.03;;;5.43;;
32082;SDS011;18597;48.328;7.932;2024-01-30T03:05:10;5.00;;;4.60;;
32082;SDS011;18597;48.328;7.932;2024-01-30T03:07:36;4.80;;;4.40;;
32082;SDS011;18597;48.328;7.932;2024-01-30T03:10:03;7.40;;;5.60;;
32082;SDS011;18597;48.328;7.932;2024-01-30T03:12:31;8.00;;;5.30;;
32082;SDS011;18597;48.328;7.932;2024-01-30T03:14:57;5.17;;;4.87;;
32082;SDS011;18597;48.328;7.932;2024-01-30T03:17:23;5.67;;;4.83;;
32082;SDS011;18597;48.328;7.932;2024-01-30T03:19:49;4.00;;;3.83;;
32082;SDS011;18597;48.328;7.932;2024-01-30T03:22:15;6.40;;;4.97;;
32082;SDS011;18597;48.328;7.932;2024-01-30T03:24:41;5.43;;;4.30;;
32082;SDS011;18597;48.328;7.932;2024-01-30T03:27:07;5.80;;;5.30;;
32082;SDS011;18597;48.328;7.932;2024-01-30T03:29:33;5.80;;;5.10;;
32082;SDS011;18597;48.328;7.932;2024-01-30T03:31:59;6.30;;;4.10;;
32082;SDS011;18597;48.328;7.932;2024-01-30T03:34:25;5.30;;;4.77;;
32082;SDS011;18597;48.328;7.932;2024-01-30T03:36:51;4.53;;;4.13;;
32082;SDS011;18597;48.328;7.932;2024-01-30T03:39:17;6.07;;;5.57;;
32082;SDS011;18597;48.328;7.932;2024-01-30T03:41:42;6.20;;;5.70;;
32082;SDS011;18597;48.328;7.932;2024-01-30T03:44:09;5.20;;;4.80;;
32082;SDS011;18597;48.328;7.932;2024-01-30T03:46:35;5.40;;;4.90;;
32082;SDS011;18597;48.328;7.932;2024-01-30T03:49:01;4.60;;;4.20;;
32082;SDS011;18597;48.328;7.932;2024-01-30T03:51:27;6.30;;;4.80;;
32082;SDS011;18597;48.328;7.932;2024-01-30T03:53:53;4.73;;;4.07;;
32082;SDS011;18597;48.328;7.932;2024-01-30T03:56:18;4.93;;;4.53;;
32082;SDS011;18597;48.328;7.932;2024-01-30T03:58:44;6.23;;;5.63;;
32082;SDS011;18597;48.328;7.932;2024-01-30T04:01:13;7.27;;;4.50;;
32082;SDS011;18597;48.328;7.932;2024-01-30T04:03:40;3.97;;;3.50;;
32082;SDS011;18597;48.328;7.932;2024-01-30T04:06:06;5.03;;;4.57;;
32082;SDS011;18597;48.328;7.932;2024-01-30T04:08:33;5.47;;;4.97;;
32082;SDS011;18597;48.328;7.932;2024-01-30T04:11:02;5.07;;;4.77;;
32082;SDS011;18597;48.328;7.932;2024-01-30T04:13:30;6.00;;;4.20;;
32082;SDS011;18597;48.328;7.932;2024-01-30T04:15:58;5.97;;;5.07;;
32082;SDS011;18597;48.328;7.932;2024-01-30T04:18:26;7.37;;;5.10;;
32082;SDS011;18597;48.328;7.932;2024-01-30T04:20:52;5.10;;;4.63;;
32082;SDS011;18597;48.328;7.932;2024-01-30T04:23:18;8.30;;;5.97;;
32082;SDS011;18597;48.328;7.932;2024-01-30T04:25:44;9.20;;;5.13;;
32082;SDS011;18597;48.328;7.932;2024-01-30T04:28:10;5.80;;;5.20;;
32082;SDS011;18597;48.328;7.932;2024-01-30T04:30:37;8.03;;;5.83;;
32082;SDS011;18597;48.328;7.932;2024-01-30T04:33:03;8.53;;;6.03;;
32082;SDS011;18597;48.328;7.932;2024-01-30T04:35:29;9.57;;;7.73;;
32082;SDS011;18597;48.328;7.932;2024-01-30T04:37:55;9.33;;;6.97;;
32082;SDS011;18597;48.328;7.932;2024-01-30T04:40:21;13.40;;;8.03;;
32082;SDS011;18597;48.328;7.932;2024-01-30T04:42:47;11.80;;;7.00;;
32082;SDS011;18597;48.328;7.932;2024-01-30T04:45:13;7.73;;;6.83;;
32082;SDS011;18597;48.328;7.932;2024-01-30T04:47:38;10.63;;;7.20;;
32082;SDS011;18597;48.328;7.932;2024-01-30T04:50:06;11.60;;;7.13;;
32082;SDS011;18597;48.328;7.932;2024-01-30T04:52:33;9.47;;;6.50;;
32082;SDS011;18597;48.328;7.932;2024-01-30T04:54:59;11.80;;;7.63;;
32082;SDS011;18597;48.328;7.932;2024-01-30T04:57:25;7.03;;;6.33;;
32082;SDS011;18597;48.328;7.932;2024-01-30T04:59:51;10.43;;;6.43;;
32082;SDS011;18597;48.328;7.932;2024-01-30T05:02:17;12.30;;;8.00;;
32082;SDS011;18597;48.328;7.932;2024-01-30T05:04:43;7.87;;;7.13;;
32082;SDS011;18597;48.328;7.932;2024-01-30T05:07:08;10.90;;;7.73;;
32082;SDS011;18597;48.328;7.932;2024-01-30T05:09:34;8.87;;;7.97;;
32082;SDS011;18597;48.328;7.932;2024-01-30T05:12:00;10.83;;;8.37;;
32082;SDS011;18597;48.328;7.932;2024-01-30T05:14:26;12.20;;;7.93;;
32082;SDS011;18597;48.328;7.932;2024-01-30T05:16:51;10.53;;;9.20;;
32082;SDS011;18597;48.328;7.932;2024-01-30T05:19:17;12.33;;;10.63;;
32082;SDS011;18597;48.328;7.932;2024-01-30T05:21:43;14.97;;;11.27;;
32082;SDS011;18597;48.328;7.932;2024-01-30T05:24:09;15.60;;;9.00;;
32082;SDS011;18597;48.328;7.932;2024-01-30T05:26:35;11.77;;;8.57;;
32082;SDS011;18597;48.328;7.932;2024-01-30T05:29:01;11.77;;;8.03;;
32082;SDS011;18597;48.328;7.932;2024-01-30T05:31:28;8.23;;;7.40;;
32082;SDS011;18597;48.328;7.932;2024-01-30T05:33:54;9.93;;;8.93;;
32082;SDS011;18597;48.328;7.932;2024-01-30T05:36:19;10.63;;;7.57;;
32082;SDS011;18597;48.328;7.932;2024-01-30T05:38:46;9.17;;;7.83;;
32082;SDS011;18597;48.328;7.932;2024-01-30T05:41:12;8.83;;;7.93;;
32082;SDS011;18597;48.328;7.932;2024-01-30T05:43:38;13.27;;;8.10;;
32082;SDS011;18597;48.328;7.932;2024-01-30T05:46:04;18.17;;;10.80;;
32082;SDS011;18597;48.328;7.932;2024-01-30T05:48:32;15.10;;;9.80;;
32082;SDS011;18597;48.328;7.932;2024-01-30T05:50:58;14.03;;;11.07;;
32082;SDS011;18597;48.328;7.932;2024-01-30T05:53:25;19.33;;;12.47;;
32082;SDS011;18597;48.328;7.932;2024-01-30T05:55:50;16.23;;;8.37;;
32082;SDS011;18597;48.328;7.932;2024-01-30T05:58:16;13.27;;;8.93;;
32082;SDS011;18597;48.328;7.932;2024-01-30T06:00:42;16.13;;;10.27;;
32082;SDS011;18597;48.328;7.932;2024-01-30T06:03:08;20.87;;;12.40;;
32082;SDS011;18597;48.328;7.932;2024-01-30T06:05:34;20.20;;;12.30;;
32082;SDS011;18597;48.328;7.932;2024-01-30T06:07:59;23.23;;;13.97;;
32082;SDS011;18597;48.328;7.932;2024-01-30T06:10:25;19.97;;;12.97;;
32082;SDS011;18597;48.328;7.932;2024-01-30T06:12:51;22.20;;;15.43;;
32082;SDS011;18597;48.328;7.932;2024-01-30T06:15:17;40.90;;;24.03;;
32082;SDS011;18597;48.328;7.932;2024-01-30T06:17:43;18.30;;;12.90;;
32082;SDS011;18597;48.328;7.932;2024-01-30T06:20:09;28.30;;;17.13;;
32082;SDS011;18597;48.328;7.932;2024-01-30T06:22:35;18.33;;;12.77;;
32082;SDS011;18597;48.328;7.932;2024-01-30T06:25:01;17.67;;;12.13;;
32082;SDS011;18597;48.328;7.932;2024-01-30T06:27:27;10.40;;;8.80;;
32082;SDS011;18597;48.328;7.932;2024-01-30T06:29:53;18.20;;;11.13;;
32082;SDS011;18597;48.328;7.932;2024-01-30T06:32:19;15.30;;;11.00;;
32082;SDS011;18597;48.328;7.932;2024-01-30T06:34:44;14.80;;;11.33;;
32082;SDS011;18597;48.328;7.932;2024-01-30T06:37:10;14.07;;;10.77;;
32082;SDS011;18597;48.328;7.932;2024-01-30T06:39:36;12.73;;;10.97;;
32082;SDS011;18597;48.328;7.932;2024-01-30T06:42:02;18.83;;;16.80;;
32082;SDS011;18597;48.328;7.932;2024-01-30T06:44:28;26.90;;;18.37;;
32082;SDS011;18597;48.328;7.932;2024-01-30T06:46:53;22.63;;;14.83;;
32082;SDS011;18597;48.328;7.932;2024-01-30T06:49:19;21.83;;;16.93;;
32082;SDS011;18597;48.328;7.932;2024-01-30T06:51:47;26.67;;;18.13;;
32082;SDS011;18597;48.328;7.932;2024-01-30T06:54:13;23.57;;;14.80;;
32082;SDS011;18597;48.328;7.932;2024-01-30T06:56:38;17.30;;;13.07;;
32082;SDS011;18597;48.328;7.932;2024-01-30T06:59:06;14.30;;;11.60;;
32082;SDS011;18597;48.328;7.932;2024-01-30T07:01:33;15.37;;;11.80;;
32082;SDS011;18597;48.328;7.932;2024-01-30T07:04:00;21.10;;;12.40;;
32082;SDS011;18597;48.328;7.932;2024-01-30T07:06:25;18.10;;;13.37;;
32082;SDS011;18597;48.328;7.932;2024-01-30T07:08:51;19.47;;;13.30;;
32082;SDS011;18597;48.328;7.932;2024-01-30T07:11:19;14.37;;;9.40;;
32082;SDS011;18597;48.328;7.932;2024-01-30T07:13:47;15.03;;;11.23;;
32082;SDS011;18597;48.328;7.932;2024-01-30T07:16:14;19.60;;;11.33;;
32082;SDS011;18597;48.328;7.932;2024-01-30T07:18:40;14.00;;;11.40;;
32082;SDS011;18597;48.328;7.932;2024-01-30T07:21:06;18.53;;;13.03;;
32082;SDS011;18597;48.328;7.932;2024-01-30T07:23:32;17.50;;;12.97;;
32082;SDS011;18597;48.328;7.932;2024-01-30T07:25:59;17.67;;;12.53;;
32082;SDS011;18597;48.328;7.932;2024-01-30T07:28:26;20.10;;;15.37;;
32082;SDS011;18597;48.328;7.932;2024-01-30T07:30:52;24.87;;;16.27;;
32082;SDS011;18597;48.328;7.932;2024-01-30T07:33:18;26.37;;;14.53;;
32082;SDS011;18597;48.328;7.932;2024-01-30T07:35:44;24.33;;;16.80;;
32082;SDS011;18597;48.328;7.932;2024-01-30T07:38:10;22.00;;;13.00;;
32082;SDS011;18597;48.328;7.932;2024-01-30T07:40:36;18.80;;;14.27;;
32082;SDS011;18597;48.328;7.932;2024-01-30T07:43:02;23.93;;;13.60;;
32082;SDS011;18597;48.328;7.932;2024-01-30T07:45:28;24.30;;;19.33;;
32082;SDS011;18597;48.328;7.932;2024-01-30T07:47:58;21.00;;;14.53;;
32082;SDS011;18597;48.328;7.932;2024-01-30T07:50:25;25.10;;;19.40;;
32082;SDS011;18597;48.328;7.932;2024-01-30T07:52:51;19.73;;;14.77;;
32082;SDS011;18597;48.328;7.932;2024-01-30T07:55:20;21.30;;;14.63;;
32082;SDS011;18597;48.328;7.932;2024-01-30T07:57:49;22.23;;;14.53;;
32082;SDS011;18597;48.328;7.932;2024-01-30T08:00:17;20.33;;;13.47;;
32082;SDS011;18597;48.328;7.932;2024-01-30T08:02:45;19.83;;;15.73;;
32082;SDS011;18597;48.328;7.932;2024-01-30T08:05:11;25.10;;;16.37;;
32082;SDS011;18597;48.328;7.932;2024-01-30T08:07:37;27.50;;;16.33;;
32082;SDS011;18597;48.328;7.932;2024-01-30T08:10:03;18.10;;;14.93;;
32082;SDS011;18597;48.328;7.932;2024-01-30T08:12:29;18.43;;;14.53;;
32082;SDS011;18597;48.328;7.932;2024-01-30T08:14:54;21.43;;;14.63;;
32082;SDS011;18597;48.328;7.932;2024-01-30T08:17:20;16.63;;;14.00;;
32082;SDS011;18597;48.328;7.932;2024-01-30T08:19:46;17.77;;;14.00;;
32082;SDS011;18597;48.328;7.932;2024-01-30T08:22:12;18.20;;;13.07;;
32082;SDS011;18597;48.328;7.932;2024-01-30T08:24:38;17.50;;;13.20;;
32082;SDS011;18597;48.328;7.932;2024-01-30T08:27:06;14.47;;;12.90;;
32082;SDS011;18597;48.328;7.932;2024-01-30T08:29:34;21.30;;;14.97;;
32082;SDS011;18597;48.328;7.932;2024-01-30T08:32:01;23.53;;;15.03;;
32082;SDS011;18597;48.328;7.932;2024-01-30T08:34:27;20.43;;;13.77;;
32082;SDS011;18597;48.328;7.932;2024-01-30T08:36:53;33.30;;;18.57;;
32082;SDS011;18597;48.328;7.932;2024-01-30T08:39:19;22.10;;;15.27;;
32082;SDS011;18597;48.328;7.932;2024-01-30T08:41:45;19.50;;;14.07;;
32082;SDS011;18597;48.328;7.932;2024-01-30T08:44:10;22.83;;;13.50;;
32082;SDS011;18597;48.328;7.932;2024-01-30T08:46:36;17.80;;;12.60;;
32082;SDS011;18597;48.328;7.932;2024-01-30T08:49:02;33.97;;;22.80;;
32082;SDS011;18597;48.328;7.932;2024-01-30T08:51:29;30.43;;;19.67;;
32082;SDS011;18597;48.328;7.932;2024-01-30T08:53:56;26.50;;;18.73;;
32082;SDS011;18597;48.328;7.932;2024-01-30T08:56:22;28.23;;;18.97;;
32082;SDS011;18597;48.328;7.932;2024-01-30T08:58:48;31.27;;;20.80;;
32082;SDS011;18597;48.328;7.932;2024-01-30T09:01:14;37.93;;;19.47;;
32082;SDS011;18597;48.328;7.932;2024-01-30T09:03:40;25.90;;;18.03;;
32082;SDS011;18597;48.328;7.932;2024-01-30T09:06:08;31.70;;;19.97;;
32082;SDS011;18597;48.328;7.932;2024-01-30T09:08:35;21.83;;;15.77;;
32082;SDS011;18597;48.328;7.932;2024-01-30T09:11:08;22.37;;;17.13;;
32082;SDS011;18597;48.328;7.932;2024-01-30T09:13:37;30.00;;;18.80;;
32082;SDS011;18597;48.328;7.932;2024-01-30T09:16:03;26.77;;;17.30;;
32082;SDS011;18597;48.328;7.932;2024-01-30T09:18:30;22.13;;;16.07;;
32082;SDS011;18597;48.328;7.932;2024-01-30T09:20:56;31.93;;;19.03;;
32082;SDS011;18597;48.328;7.932;2024-01-30T09:23:21;28.40;;;17.90;;
32082;SDS011;18597;48.328;7.932;2024-01-30T09:25:47;15.93;;;12.90;;
32082;SDS011;18597;48.328;7.932;2024-01-30T09:28:13;19.17;;;14.80;;
32082;SDS011;18597;48.328;7.932;2024-01-30T09:30:39;49.40;;;34.00;;
32082;SDS011;18597;48.328;7.932;2024-01-30T09:33:05;44.30;;;29.70;;
32082;SDS011;18597;48.328;7.932;2024-01-30T09:35:31;32.47;;;20.97;;
32082;SDS011;18597;48.328;7.932;2024-01-30T09:37:58;24.07;;;17.63;;
32082;SDS011;18597;48.328;7.932;2024-01-30T09:40:25;28.57;;;17.00;;
32082;SDS011;18597;48.328;7.932;2024-01-30T09:42:51;18.00;;;12.53;;
32082;SDS011;18597;48.328;7.932;2024-01-30T09:45:17;16.70;;;10.83;;
32082;SDS011;18597;48.328;7.932;2024-01-30T09:47:44;14.43;;;9.23;;
32082;SDS011;18597;48.328;7.932;2024-01-30T09:50:12;22.67;;;15.57;;
32082;SDS011;18597;48.328;7.932;2024-01-30T09:52:39;51.20;;;28.47;;
32082;SDS011;18597;48.328;7.932;2024-01-30T09:55:06;28.70;;;18.00;;
32082;SDS011;18597;48.328;7.932;2024-01-30T09:57:33;15.23;;;11.07;;
32082;SDS011;18597;48.328;7.932;2024-01-30T10:00:00;11.73;;;8.73;;
32082;SDS011;18597;48.328;7.932;2024-01-30T10:02:26;10.80;;;7.60;;
32082;SDS011;18597;48.328;7.932;2024-01-30T10:04:52;6.07;;;5.47;;
32082;SDS011;18597;48.328;7.932;2024-01-30T10:07:18;13.13;;;8.10;;
32082;SDS011;18597;48.328;7.932;2024-01-30T10:09:45;8.93;;;6.87;;
32082;SDS011;18597;48.328;7.932;2024-01-30T10:12:11;4.57;;;4.27;;
32082;SDS011;18597;48.328;7.932;2024-01-30T10:14:39;3.67;;;3.40;;
32082;SDS011;18597;48.328;7.932;2024-01-30T10:17:07;4.33;;;3.93;;
32082;SDS011;18597;48.328;7.932;2024-01-30T10:19:35;9.80;;;4.20;;
32082;SDS011;18597;48.328;7.932;2024-01-30T10:22:03;5.77;;;4.30;;
32082;SDS011;18597;48.328;7.932;2024-01-30T10:24:29;4.80;;;4.30;;
32082;SDS011;18597;48.328;7.932;2024-01-30T10:26:56;10.87;;;5.77;;
32082;SDS011;18597;48.328;7.932;2024-01-30T10:29:22;4.00;;;3.40;;
32082;SDS011;18597;48.328;7.932;2024-01-30T10:32:03;5.87;;;5.27;;
32082;SDS011;18597;48.328;7.932;2024-01-30T10:34:31;3.80;;;3.60;;
32082;SDS011;18597;48.328;7.932;2024-01-30T10:37:06;4.47;;;3.70;;
32082;SDS011;18597;48.328;7.932;2024-01-30T10:39:40;3.43;;;3.13;;
32082;SDS011;18597;48.328;7.932;2024-01-30T10:42:10;4.13;;;3.77;;
32082;SDS011;18597;48.328;7.932;2024-01-30T10:45:10;4.20;;;3.73;;
32082;SDS011;18597;48.328;7.932;2024-01-30T10:47:33;4.97;;;4.60;;
32082;SDS011;18597;48.328;7.932;2024-01-30T10:50:02;4.57;;;3.97;;
32082;SDS011;18597;48.328;7.932;2024-01-30T10:52:29;5.17;;;4.63;;
32082;SDS011;18597;48.328;7.932;2024-01-30T10:54:56;5.03;;;4.63;;
32082;SDS011;18597;48.328;7.932;2024-01-30T10:57:23;3.90;;;3.70;;
32082;SDS011;18597;48.328;7.932;2024-01-30T10:59:50;5.30;;;3.53;;
32082;SDS011;18597;48.328;7.932;2024-01-30T11:02:20;4.27;;;3.97;;
32082;SDS011;18597;48.328;7.932;2024-01-30T11:04:48;4.40;;;3.60;;
32082;SDS011;18597;48.328;7.932;2024-01-30T11:07:15;7.00;;;4.07;;
32082;SDS011;18597;48.328;7.932;2024-01-30T11:12:37;4.33;;;3.67;;
32082;SDS011;18597;48.328;7.932;2024-01-30T11:15:06;3.77;;;3.53;;
32082;SDS011;18597;48.328;7.932;2024-01-30T11:17:43;8.73;;;5.30;;
32082;SDS011;18597;48.328;7.932;2024-01-30T11:20:20;5.87;;;4.63;;
32082;SDS011;18597;48.328;7.932;2024-01-30T11:22:51;5.33;;;3.43;;
32082;SDS011;18597;48.328;7.932;2024-01-30T11:25:20;4.23;;;3.17;;
32082;SDS011;18597;48.328;7.932;2024-01-30T11:27:49;3.33;;;2.80;;
32082;SDS011;18597;48.328;7.932;2024-01-30T11:33:00;4.10;;;3.70;;
32082;SDS011;18597;48.328;7.932;2024-01-30T11:35:56;5.13;;;3.03;;
32082;SDS011;18597;48.328;7.932;2024-01-30T11:38:25;3.53;;;3.23;;
32082;SDS011;18597;48.328;7.932;2024-01-30T11:40:52;4.33;;;3.40;;
32082;SDS011;18597;48.328;7.932;2024-01-30T11:43:21;19.57;;;3.97;;
32082;SDS011;18597;48.328;7.932;2024-01-30T11:45:48;3.10;;;2.80;;
32082;SDS011;18597;48.328;7.932;2024-01-30T11:48:15;6.73;;;3.57;;
32082;SDS011;18597;48.328;7.932;2024-01-30T11:50:41;4.67;;;3.00;;
32082;SDS011;18597;48.328;7.932;2024-01-30T11:53:07;5.03;;;3.90;;
32082;SDS011;18597;48.328;7.932;2024-01-30T11:55:34;3.67;;;3.37;;
32082;SDS011;18597;48.328;7.932;2024-01-30T11:58:02;3.00;;;2.77;;
32082;SDS011;18597;48.328;7.932;2024-01-30T12:00:29;3.00;;;2.70;;
32082;SDS011;18597;48.328;7.932;2024-01-30T12:03:01;3.20;;;3.00;;
32082;SDS011;18597;48.328;7.932;2024-01-30T12:05:28;3.17;;;2.97;;
32082;SDS011;18597;48.328;7.932;2024-01-30T12:07:54;4.33;;;3.90;;
32082;SDS011;18597;48.328;7.932;2024-01-30T12:10:23;3.73;;;3.40;;
32082;SDS011;18597;48.328;7.932;2024-01-30T12:12:49;3.23;;;2.90;;
32082;SDS011;18597;48.328;7.932;2024-01-30T12:15:16;3.47;;;2.80;;
32082;SDS011;18597;48.328;7.932;2024-01-30T12:17:43;6.23;;;3.10;;
32082;SDS011;18597;48.328;7.932;2024-01-30T12:20:10;4.07;;;3.77;;
32082;SDS011;18597;48.328;7.932;2024-01-30T12:22:40;4.43;;;3.17;;
32082;SDS011;18597;48.328;7.932;2024-01-30T12:25:08;2.80;;;2.60;;
32082;SDS011;18597;48.328;7.932;2024-01-30T12:27:38;8.40;;;3.30;;
32082;SDS011;18597;48.328;7.932;2024-01-30T12:30:07;4.40;;;2.97;;
32082;SDS011;18597;48.328;7.932;2024-01-30T12:32:35;2.80;;;2.60;;
32082;SDS011;18597;48.328;7.932;2024-01-30T12:35:02;3.47;;;3.27;;
32082;SDS011;18597;48.328;7.932;2024-01-30T12:37:29;3.20;;;3.00;;
32082;SDS011;18597;48.328;7.932;2024-01-30T12:39:56;3.97;;;2.67;;
32082;SDS011;18597;48.328;7.932;2024-01-30T12:42:22;5.17;;;4.27;;
32082;SDS011;18597;48.328;7.932;2024-01-30T12:44:48;4.53;;;3.97;;
32082;SDS011;18597;48.328;7.932;2024-01-30T12:47:14;3.33;;;3.03;;
32082;SDS011;18597;48.328;7.932;2024-01-30T12:49:42;5.07;;;3.67;;
32082;SDS011;18597;48.328;7.932;2024-01-30T12:52:09;4.60;;;4.20;;
32082;SDS011;18597;48.328;7.932;2024-01-30T12:54:38;3.07;;;2.87;;
32082;SDS011;18597;48.328;7.932;2024-01-30T12:57:04;9.00;;;3.30;;
32082;SDS011;18597;48.328;7.932;2024-01-30T12:59:31;3.97;;;3.60;;
32082;SDS011;18597;48.328;7.932;2024-01-30T13:01:58;3.43;;;3.23;;
32082;SDS011;18597;48.328;7.932;2024-01-30T13:04:25;4.33;;;3.13;;
32082;SDS011;18597;48.328;7.932;2024-01-30T13:06:52;8.20;;;5.37;;
32082;SDS011;18597;48.328;7.932;2024-01-30T13:09:18;5.17;;;4.67;;
32082;SDS011;18597;48.328;7.932;2024-01-30T13:11:44;12.90;;;7.17;;
32082;SDS011;18597;48.328;7.932;2024-01-30T13:14:10;5.13;;;3.77;;
32082;SDS011;18597;48.328;7.932;2024-01-30T13:16:36;7.60;;;5.03;;
32082;SDS011;18597;48.328;7.932;2024-01-30T13:19:02;5.10;;;4.37;;
32082;SDS011;18597;48.328;7.932;2024-01-30T13:21:28;4.87;;;3.50;;
32082;SDS011;18597;48.328;7.932;2024-01-30T13:23:54;3.70;;;3.40;;
32082;SDS011;18597;48.328;7.932;2024-01-30T13:26:20;8.40;;;4.30;;
32082;SDS011;18597;48.328;7.932;2024-01-30T13:28:47;3.73;;;3.50;;
32082;SDS011;18597;48.328;7.932;2024-01-30T13:31:14;4.97;;;3.67;;
32082;SDS011;18597;48.328;7.932;2024-01-30T13:33:40;4.17;;;3.83;;
32082;SDS011;18597;48.328;7.932;2024-01-30T13:36:07;5.50;;;3.57;;
32082;SDS011;18597;48.328;7.932;2024-01-30T13:38:34;5.70;;;3.87;;
32082;SDS011;18597;48.328;7.932;2024-01-30T13:41:00;7.50;;;4.27;;
32082;SDS011;18597;48.328;7.932;2024-01-30T13:43:26;3.70;;;3.40;;
32082;SDS011;18597;48.328;7.932;2024-01-30T13:45:52;8.07;;;3.57;;
32082;SDS011;18597;48.328;7.932;2024-01-30T13:48:18;4.00;;;3.70;;
32082;SDS011;18597;48.328;7.932;2024-01-30T13:50:44;2.93;;;2.70;;
32082;SDS011;18597;48.328;7.932;2024-01-30T13:53:11;6.33;;;3.83;;
32082;SDS011;18597;48.328;7.932;2024-01-30T13:55:37;5.40;;;4.50;;
32082;SDS011;18597;48.328;7.932;2024-01-30T13:58:04;10.40;;;7.30;;
32082;SDS011;18597;48.328;7.932;2024-01-30T14:00:30;5.37;;;4.40;;
32082;SDS011;18597;48.328;7.932;2024-01-30T14:02:57;4.90;;;4.53;;
32082;SDS011;18597;48.328;7.932;2024-01-30T14:05:24;10.97;;;8.33;;
32082;SDS011;18597;48.328;7.932;2024-01-30T14:07:50;5.63;;;3.60;;
32082;SDS011;18597;48.328;7.932;2024-01-30T14:10:17;28.67;;;4.83;;
32082;SDS011;18597;48.328;7.932;2024-01-30T14:12:43;4.90;;;4.33;;
32082;SDS011;18597;48.328;7.932;2024-01-30T14:15:09;4.70;;;3.50;;
32082;SDS011;18597;48.328;7.932;2024-01-30T14:17:37;10.10;;;4.13;;
32082;SDS011;18597;48.328;7.932;2024-01-30T14:20:03;7.40;;;3.80;;
32082;SDS011;18597;48.328;7.932;2024-01-30T14:22:30;6.63;;;4.20;;
32082;SDS011;18597;48.328;7.932;2024-01-30T14:24:56;8.43;;;5.90;;
32082;SDS011;18597;48.328;7.932;2024-01-30T14:27:22;4.30;;;3.43;;
32082;SDS011;18597;48.328;7.932;2024-01-30T14:29:48;5.00;;;3.90;;
32082;SDS011;18597;48.328;7.932;2024-01-30T14:32:14;5.60;;;4.47;;
32082;SDS011;18597;48.328;7.932;2024-01-30T14:34:40;5.47;;;5.07;;
32082;SDS011;18597;48.328;7.932;2024-01-30T14:37:06;8.20;;;4.37;;
32082;SDS011;18597;48.328;7.932;2024-01-30T14:39:32;4.33;;;3.80;;
32082;SDS011;18597;48.328;7.932;2024-01-30T14:41:59;5.00;;;4.40;;